Time;durP1;ratioP1;P1;durP2;ratioP2;P2;SDS_P1;SDS_P2;PMS_P1;PMS_P2;Temp;Humidity;BMP_temperature;BMP_pressure;BME280_temperature;BME280_humidity;BME280_pressure;Samples;Min_cycle;Max_cycle;Signal;HPM_P1;HPM_P2
2023/08/06 21:19:12;;;;;;;3.17;0.60;;;;;;;18.36;73.77;98506.45;1887086;76;26806;-59
2023/08/06 21:21:40;;;;;;;4.45;4.25;;;;;;;18.21;74.06;98504.42;1858158;77;25516;-64
2023/08/06 21:24:07;;;;;;;73.30;69.10;;;;;;;18.17;74.08;98508.56;1787866;80;27310;-62
2023/08/06 21:26:34;;;;;;;72.35;68.30;;;;;;;18.14;74.38;98516.20;1788601;78;25587;-61
2023/08/06 21:29:01;;;;;;;73.60;69.50;;;;;;;18.11;74.27;98511.53;1788070;80;25389;-62
2023/08/06 21:31:28;;;;;;;71.95;67.70;;;;;;;18.08;74.43;98522.70;1788071;80;25415;-59
2023/08/06 21:33:54;;;;;;;71.80;67.72;;;;;;;18.04;74.56;98524.67;1820453;78;25460;-51
2023/08/06 21:36:22;;;;;;;73.33;69.12;;;;;;;18.00;74.35;98521.19;1788093;80;27590;-53
2023/08/06 21:38:48;;;;;;;72.65;68.50;;;;;;;17.97;74.56;98528.83;1787887;80;27375;-61
2023/08/06 21:41:16;;;;;;;72.67;68.47;;;;;;;17.92;74.52;98536.86;1820470;78;25542;-65
2023/08/06 21:43:49;;;;;;;73.22;69.12;;;;;;;17.86;74.52;98534.38;1788052;80;25957;-66
2023/08/06 21:46:19;;;;;;;72.78;68.62;;;;;;;17.81;74.74;98533.41;1788150;80;25547;-65
2023/08/06 21:48:49;;;;;;;75.20;70.75;;;;;;;17.78;74.80;98538.90;1820400;78;28242;-66
2023/08/06 21:51:19;;;;;;;76.77;72.05;;;;;;;17.74;74.90;98530.13;1788016;80;25569;-64
2023/08/06 21:53:48;;;;;;;0.60;0.60;;;;;;;17.72;74.91;98526.22;1788146;80;25373;-67
2023/08/06 21:56:16;;;;;;;0.70;0.70;;;;;;;17.71;74.98;98536.39;1820565;78;25386;-66
2023/08/06 21:58:49;;;;;;;22.48;12.82;;;;;;;17.68;75.15;98536.41;1788041;80;25381;-54
2023/08/06 22:01:19;;;;;;;84.85;79.32;;;;;;;17.67;75.23;98532.91;1820448;78;27538;-52
2023/08/06 22:03:45;;;;;;;72.78;68.47;;;;;;;17.68;75.34;98532.31;1788004;80;25445;-52
2023/08/06 22:06:14;;;;;;;74.20;69.80;;;;;;;17.65;75.33;98537.20;1788073;80;25532;-52
2023/08/06 22:08:42;;;;;;;74.77;70.33;;;;;;;17.64;75.37;98543.84;1820609;78;25555;-51
2023/08/06 22:11:10;;;;;;;74.40;70.10;;;;;;;17.63;75.61;98543.06;1788074;80;25610;-51
2023/08/06 22:13:38;;;;;;;72.67;68.57;;;;;;;17.65;75.66;98541.30;1788038;80;28132;-49
2023/08/06 22:16:09;;;;;;;71.75;67.58;;;;;;;17.61;75.70;98531.76;1820404;78;32800;-53
2023/08/06 22:18:36;;;;;;;72.80;68.60;;;;;;;17.61;75.70;98531.76;1787273;80;25468;-51
2023/08/06 22:21:04;;;;;;;74.30;70.15;;;;;;;17.59;75.98;98542.32;1793216;78;25602;-48
2023/08/06 22:23:30;;;;;;;54.53;51.50;;;;;;;17.55;76.02;98544.28;1822219;78;25664;-48
2023/08/06 22:25:56;;;;;;;11.60;10.98;;;;;;;17.52;76.71;98549.17;1786501;80;27509;-51
2023/08/06 22:28:24;;;;;;;70.52;66.47;;;;;;;17.47;76.26;98555.84;1786487;80;25714;-49
2023/08/06 22:30:51;;;;;;;72.50;68.40;;;;;;;17.42;76.49;98563.66;1818305;78;25726;-48
2023/08/06 22:33:19;;;;;;;71.57;67.37;;;;;;;17.41;76.73;98562.89;1785989;80;25658;-48
2023/08/06 22:35:45;;;;;;;70.97;66.95;;;;;;;17.43;76.83;98572.83;1785985;80;25886;-50
2023/08/06 22:38:11;;;;;;;70.60;66.60;;;;;;;17.41;76.82;98573.82;1819029;78;27506;-52
2023/08/06 22:40:37;;;;;;;72.12;67.82;;;;;;;17.41;76.84;98575.78;1787338;80;25465;-50
2023/08/06 22:43:03;;;;;;;70.67;66.50;;;;;;;17.38;76.74;98575.97;1787421;80;25582;-50
2023/08/06 22:45:29;;;;;;;70.05;66.05;;;;;;;17.33;76.53;98577.19;1819676;78;25403;-52
2023/08/06 22:47:55;;;;;;;70.12;66.10;;;;;;;17.34;76.90;98582.83;1787503;80;25371;-50
2023/08/06 22:50:22;;;;;;;72.27;68.17;;;;;;;17.32;77.24;98582.45;1787020;80;27495;-52
2023/08/06 22:52:48;;;;;;;62.90;59.40;;;;;;;17.29;76.92;98575.03;1819058;78;25692;-49
2023/08/06 22:55:14;;;;;;;1.22;0.70;;;;;;;17.32;77.73;98592.61;1786739;80;25652;-49
2023/08/06 22:57:40;;;;;;;70.72;66.67;;;;;;;17.29;78.69;98602.36;1787328;80;25560;-50
2023/08/06 23:00:08;;;;;;;72.08;67.97;;;;;;;17.20;78.19;98606.11;1819703;78;25365;-49
2023/08/06 23:02:37;;;;;;;72.70;68.60;;;;;;;17.11;79.07;98608.45;1728914;80;28055;-50
2023/08/06 23:05:06;;;;;;;72.15;67.82;;;;;;;16.97;80.00;98616.09;1787258;80;25756;-50
2023/08/06 23:07:33;;;;;;;;;;;;;;;16.84;79.76;98612.17;1822457;78;25504;-50
2023/08/06 23:09:59;;;;;;;0.85;0.85;;;;;;;16.74;80.46;98621.95;1781292;80;25477;-53
2023/08/06 23:12:25;;;;;;;0.40;0.40;;;;;;;16.66;80.53;98623.89;1781361;80;25473;-53
2023/08/06 23:14:51;;;;;;;72.17;67.95;;;;;;;16.59;80.42;98626.03;1781367;80;27507;-51
2023/08/06 23:17:17;;;;;;;73.40;69.10;;;;;;;16.52;80.66;98633.45;1787305;79;25578;-52
2023/08/06 23:19:43;;;;;;;74.05;69.85;;;;;;;16.44;80.88;98631.30;1787342;80;28424;-52
2023/08/06 23:22:10;;;;;;;73.83;69.62;;;;;;;16.34;80.89;98645.11;1787403;80;34722;-52
2023/08/06 23:24:36;;;;;;;74.53;70.25;;;;;;;16.24;81.24;98626.78;1787432;80;25424;-52
2023/08/06 23:27:06;;;;;;;0.50;0.50;;;;;;;16.17;81.23;98621.31;1753603;80;28249;-52
2023/08/06 23:29:32;;;;;;;0.40;0.40;;;;;;;16.14;81.96;98627.55;1782520;80;25599;-50
2023/08/06 23:31:58;;;;;;;0.40;0.40;;;;;;;16.08;82.03;98631.83;1819654;78;25436;-52
2023/08/06 23:34:24;;;;;;;0.72;0.47;;;;;;;16.04;81.95;98625.01;1787291;80;25599;-53
2023/08/06 23:36:50;;;;;;;0.72;0.53;;;;;;;15.99;82.14;98620.70;1819788;78;25388;-52
2023/08/06 23:39:16;;;;;;;0.40;0.40;;;;;;;15.95;82.08;98622.63;1787379;80;27555;-52
2023/08/06 23:41:42;;;;;;;0.30;0.30;;;;;;;15.94;82.42;98626.53;1819561;78;25871;-54
2023/08/06 23:44:08;;;;;;;0.42;0.40;;;;;;;15.90;82.27;98610.73;1787404;80;25448;-52
2023/08/06 23:46:35;;;;;;;0.70;0.70;;;;;;;15.90;82.38;98600.42;1819672;78;25996;-52
2023/08/06 23:49:03;;;;;;;1.98;1.72;;;;;;;15.89;82.22;98598.28;1787421;80;25432;-53
2023/08/06 23:51:30;;;;;;;14.78;13.98;;;;;;;15.87;82.57;98591.85;1819715;78;27413;-54
2023/08/06 23:53:56;;;;;;;12.47;11.80;;;;;;;15.85;82.29;98603.73;1787280;80;25968;-53
2023/08/06 23:56:22;;;;;;;39.60;37.42;;;;;;;15.84;82.39;98610.93;1775965;80;25596;-52
2023/08/06 23:58:49;;;;;;;14.78;13.98;;;;;;;15.81;82.40;98618.51;1819598;78;25542;-52
